Detall de PIREP

Printer-friendly versionPDF version

[2013/04/29 16:39:00]
Flight IATA:CT3113
Pilot Number:012
Company ICAO:CAT
Aircraft Type:AT72/F
PAX:53
Departing Airport: LFMP
Destination Airport: LEBL
Alternate Airport:LEPA
Online: VATSIM
Route:BEXUR DCT BISBA
Flight Level:F110
No Slew and time accel
No pause
Crash detect
Detect pilot in Cockpit between each 30 and 45 minutes
16:39 Zero fuel Weight: 40358 Lbs, Fuel Weight: 4479 Lbs
16:39 VATSIM:LFMP 291630Z 31009KT 280V350 9000 -RA BKN030 09/07 Q1012
16:39 VATSIM:LEBL 291630Z 06018KT 9999 FEW012 BKN029 15/12 Q1007 NOSIG
16:39 VOICE CATALONIAN
16:46 Parking Brakes off
16:48 Take-off
16:48 Take off Weight: 44795 Lbs
16:48 Wind: 312º @ 014 Knots Heading: 325º
16:48 POS N42º 44´ 47´´ E002º 52´ 04´´
16:48 Gear Up: 135 Knots
16:48 Flaps:1 at 135 Knots
16:49 Flaps:0 at 133 Knots
16:55 TOC
16:55 Fuel Weight: 4210 Lb
17:03 Wind:148º@025 Knots Heading: 196º Ground Speed: 258 Knots Altitude 10935 ft
17:11 TOD
17:11 Fuel Weight: 3704 Lb
17:18 Wind:058º@006 Knots Heading: 242º Ground Speed: 257 Knots Altitude 6122 ft
17:26 Flaps:1 at 176 Knots
17:27 Gear Down: 138 Knots
17:27 Flaps:2 at 138 Knots
17:31 TouchDown:Rate -183 ft/min Speed: 106 Knots
17:31 Flaps:0 at 88 Knots
17:31 VATSIM:LEBL 291700Z 06019KT 9999 FEW012 BKN023 15/12 Q1007 NOSIG
17:31 Land
17:31 Wind:062º@018 Knots
17:31 Heading: 102º
17:31 Flight Duration: 00:43
17:31 Landing Weight: 43714 Lbs
17:31 POS N41º 17´ 54´´ E002º 04´ 58´´
17:34 Parking brakes on
17:34 Block to Block Duration: 00:48
17:34 Final Fuel: 3337 Lbls
17:34 Spent Fuel: 1141 Lbls
17:34 Flight Length: 163 NM
17:34 TOD Land Length: 72 NM

Exportar CSV

Powered by Drupal - Modified by Danger4k